< < Back
Terminal Aerodrome Forecast


Current Version              Previous Versions:   1  2  3  4  5  6  7  8  9  

Terminal Aerodrome Forecast

371
FTUS42 KMLB 222323
TAFMCO
TAF
KMCO 222323Z 2300/2324 07012KT P6SM SCT060 SCT250
     FM230200 05009KT P6SM SCT060 SCT250
     FM230400 03005KT P6SM FEW060 SCT250
     FM231400 05010KT P6SM SCT040
     FM231800 06013KT P6SM SCT040 SCT060=

Latest METAR

935
SAUS70 KWBC 231000 RRN
MTRMCO
METAR KMCO 230953Z 03008KT 10SM FEW050 FEW300 23/22 A3017 RMK AO2 SLP216
T02330222


USA.gov is the U.S. government's official web portal to all federal, state and local government web resources and services.